»·PEaware :: DIHNF 8W5-KYKM

DIHNF :: 8W5-KYKM

FLIGHT INFORMATION

Flight Status: Arrived
Operator: Unknown
More flights by this operator :: More flights under this callsign
Pilot: Klaus A. (15485)
Aircraft: BEECH AIRCRAFT BARON
(BE58)
More flights by this aircraft type
Origin: 8W5 Apex Airpark
United States
Destination: KYKM Yakima Air Term/Mcallister
United States
More flights between these airports :: More routes between these airports
Route: DCT
File this flight plan on PilotEdge
Remarks:
Altitude:
(Current/Filed)
9,500ft
Speed:
(Current/Filed)
170kts
Departed: 15-May-20 09:42 AM
Arrived: 15-May-20 10:27 AM
Distance/Time
Traveled:
111nm/0:44
Distance/Time
To Go:
Arrived

Flight Plot

Page will automatically refresh every two minutes.


Map Options




Map Legend


Flown Route
Filed Route
Departure Airport
Arrival Airport
Navaid (VOR, NDB)
Fix

Horizontal Profiles

Position Reports

Time Latitude Longitude Heading Altitude Ground
Speed
15-May-20 09:12 47.655894 -122.732822 285 528ft 0kts
15-May-20 09:14 47.655894 -122.732822 285 528ft 0kts
15-May-20 09:15 47.655894 -122.732822 285 528ft 0kts
15-May-20 09:15 47.655894 -122.732822 285 528ft 0kts
15-May-20 09:17 47.655894 -122.732822 285 528ft 0kts
15-May-20 09:18 47.655894 -122.732822 285 528ft 0kts
15-May-20 09:18 47.655894 -122.732822 285 528ft 0kts
15-May-20 09:19 47.655894 -122.732822 285 528ft 0kts
15-May-20 09:20 47.655894 -122.732822 285 528ft 0kts
15-May-20 09:21 47.655894 -122.732822 285 528ft 0kts
15-May-20 09:22 47.655894 -122.732822 285 528ft 0kts
15-May-20 09:23 47.655894 -122.732822 285 528ft 0kts
15-May-20 09:24 47.655894 -122.732822 285 528ft 0kts
15-May-20 09:25 47.655894 -122.732822 285 528ft 0kts
15-May-20 09:26 47.655894 -122.732822 285 528ft 0kts
15-May-20 09:27 47.655894 -122.732822 285 528ft 0kts
15-May-20 09:28 47.655894 -122.732822 285 528ft 0kts
15-May-20 09:29 47.655895 -122.732825 285 528ft 0kts
15-May-20 09:30 47.658610 -122.732510 7 528ft 13kts
15-May-20 09:31 47.660156 -122.732238 0 522ft 0kts
15-May-20 09:32 47.660124 -122.732098 212 518ft 0kts
15-May-20 09:33 47.655894 -122.732822 285 528ft 0kts
15-May-20 09:34 47.655894 -122.732823 285 528ft 0kts
15-May-20 09:35 47.655894 -122.732823 285 528ft 0kts
15-May-20 09:36 47.656923 -122.732841 6 528ft 9kts
15-May-20 09:37 47.660178 -122.732281 347 524ft 0kts
15-May-20 09:38 47.659866 -122.732493 187 528ft 0kts
15-May-20 09:39 47.659866 -122.732493 187 528ft 0kts
15-May-20 09:40 47.659866 -122.732493 187 528ft 0kts
15-May-20 09:41 47.643943 -122.734318 176 1032ft 117kts
15-May-20 09:42 47.623253 -122.697638 117 2474ft 134kts
15-May-20 09:43 47.598176 -122.659484 137 3771ft 131kts
15-May-20 09:44 47.570516 -122.624191 138 4518ft 141kts
15-May-20 09:45 47.542707 -122.585526 137 4448ft 150kts
15-May-20 09:46 47.510713 -122.540123 138 4033ft 160kts
15-May-20 09:47 47.477494 -122.497046 133 3234ft 158kts
15-May-20 09:48 47.469909 -122.431970 96 2374ft 164kts
15-May-20 09:49 47.464891 -122.365548 95 1548ft 160kts
15-May-20 09:50 47.461478 -122.301805 97 1515ft 149kts
15-May-20 09:51 47.433865 -122.266356 150 1589ft 136kts
15-May-20 09:52 47.401359 -122.236667 148 1612ft 138kts
15-May-20 09:53 47.372549 -122.199210 134 1681ft 139kts
15-May-20 09:54 47.348361 -122.154128 128 1742ft 140kts
15-May-20 09:55 47.324405 -122.106817 128 2275ft 146kts
15-May-20 09:56 47.300952 -122.058866 128 3294ft 144kts
15-May-20 09:57 47.278652 -122.009332 126 4401ft 146kts
15-May-20 09:58 47.254636 -121.960343 128 5485ft 148kts
15-May-20 09:59 47.232220 -121.908373 129 6569ft 151kts
15-May-20 10:00 47.207603 -121.857481 127 7660ft 153kts
15-May-20 10:01 47.183280 -121.805270 123 8674ft 157kts
15-May-20 10:02 47.157047 -121.752172 122 9452ft 167kts
15-May-20 10:03 47.128547 -121.691721 127 9512ft 188kts
15-May-20 10:04 47.096108 -121.628994 124 9511ft 194kts
15-May-20 10:05 47.065236 -121.564728 123 9552ft 190kts
15-May-20 10:06 47.034920 -121.501346 122 9501ft 189kts
15-May-20 10:07 47.004811 -121.438553 123 9505ft 186kts
15-May-20 10:08 46.975322 -121.377317 123 9494ft 188kts
15-May-20 10:09 46.945183 -121.314623 122 9523ft 187kts
15-May-20 10:10 46.915788 -121.253748 124 9507ft 186kts
15-May-20 10:11 46.885714 -121.191713 122 9513ft 189kts
15-May-20 10:12 46.853869 -121.125986 126 9457ft 203kts
15-May-20 10:13 46.820799 -121.058085 125 9051ft 210kts
15-May-20 10:14 46.786721 -120.987991 127 8402ft 209kts
15-May-20 10:15 46.754166 -120.921382 128 7838ft 194kts
15-May-20 10:16 46.724161 -120.860255 128 7063ft 177kts
15-May-20 10:17 46.696228 -120.803347 128 6222ft 168kts
15-May-20 10:18 46.672557 -120.751216 122 5472ft 144kts
15-May-20 10:19 46.651314 -120.705760 132 4599ft 131kts
15-May-20 10:20 46.629104 -120.663724 132 3679ft 130kts
15-May-20 10:21 46.607877 -120.621383 125 2747ft 129kts
15-May-20 10:22 46.595227 -120.573679 97 2232ft 124kts
15-May-20 10:23 46.590865 -120.529655 98 2340ft 109kts
15-May-20 10:24 46.581470 -120.489670 162 2243ft 118kts
15-May-20 10:25 46.562638 -120.517842 272 1416ft 108kts
15-May-20 10:26 46.568162 -120.539970 59 1103ft 11kts
15-May-20 10:27 46.568374 -120.539444 58 1103ft 0kts
15-May-20 10:28 46.569789 -120.537074 0 1103ft 9kts
15-May-20 10:29 46.569961 -120.537072 357 1103ft 0kts
15-May-20 10:30 46.569961 -120.537072 357 1103ft 0kts
15-May-20 10:31 46.569961 -120.537072 357 1103ft 0kts
15-May-20 10:32 46.569961 -120.537072 357 1103ft 0kts
15-May-20 10:33 46.569961 -120.537072 357 1103ft 0kts

Navigation Log

Ident Type
Flight plan parsing failed, navigation log unavailable